sensor_id;sensor_type;location;lat;lon;timestamp;pressure;altitude;pressure_sealevel;temperature;humidity
81005;BME280;70472;47.592;17.640;2023-06-10T00:00:26;99411.56;;;16.96;86.88
81005;BME280;70472;47.592;17.640;2023-06-10T00:00:58;99412.31;;;17.03;85.92
81005;BME280;70472;47.592;17.640;2023-06-10T00:01:31;99411.25;;;17.04;86.63
81005;BME280;70472;47.592;17.640;2023-06-10T00:02:03;99413.38;;;17.02;86.69
81005;BME280;70472;47.592;17.640;2023-06-10T00:02:36;99414.78;;;17.05;86.94
81005;BME280;70472;47.592;17.640;2023-06-10T00:03:08;99411.66;;;17.08;86.08
81005;BME280;70472;47.592;17.640;2023-06-10T00:03:41;99417.28;;;17.06;86.41
81005;BME280;70472;47.592;17.640;2023-06-10T00:04:17;99416.22;;;17.07;86.47
81005;BME280;70472;47.592;17.640;2023-06-10T00:04:49;99412.25;;;17.10;86.79
81005;BME280;70472;47.592;17.640;2023-06-10T00:05:22;99410.19;;;17.05;86.05
81005;BME280;70472;47.592;17.640;2023-06-10T00:05:54;99409.97;;;17.07;86.36
81005;BME280;70472;47.592;17.640;2023-06-10T00:06:26;99411.41;;;17.09;85.95
81005;BME280;70472;47.592;17.640;2023-06-10T00:06:59;99409.38;;;17.05;86.57
81005;BME280;70472;47.592;17.640;2023-06-10T00:07:31;99401.47;;;17.03;85.82
81005;BME280;70472;47.592;17.640;2023-06-10T00:08:07;99405.59;;;17.06;86.83
81005;BME280;70472;47.592;17.640;2023-06-10T00:08:40;99408.69;;;17.09;85.71
81005;BME280;70472;47.592;17.640;2023-06-10T00:09:12;99406.44;;;17.06;85.66
81005;BME280;70472;47.592;17.640;2023-06-10T00:09:45;99411.34;;;16.98;85.46
81005;BME280;70472;47.592;17.640;2023-06-10T00:10:17;99406.59;;;16.93;85.69
81005;BME280;70472;47.592;17.640;2023-06-10T00:10:50;99399.06;;;16.95;86.46
81005;BME280;70472;47.592;17.640;2023-06-10T00:11:22;99407.34;;;17.00;85.70
81005;BME280;70472;47.592;17.640;2023-06-10T00:11:55;99408.78;;;17.03;86.53
81005;BME280;70472;47.592;17.640;2023-06-10T00:12:27;99409.59;;;17.03;85.87
81005;BME280;70472;47.592;17.640;2023-06-10T00:13:00;99408.78;;;17.03;86.23
81005;BME280;70472;47.592;17.640;2023-06-10T00:13:32;99406.91;;;17.03;85.43
81005;BME280;70472;47.592;17.640;2023-06-10T00:14:05;99405.59;;;17.06;85.41
81005;BME280;70472;47.592;17.640;2023-06-10T00:14:39;99410.78;;;17.07;86.03
81005;BME280;70472;47.592;17.640;2023-06-10T00:15:11;99412.47;;;17.08;85.28
81005;BME280;70472;47.592;17.640;2023-06-10T00:15:44;99408.09;;;17.07;85.02
81005;BME280;70472;47.592;17.640;2023-06-10T00:16:16;99411.66;;;17.08;84.99
81005;BME280;70472;47.592;17.640;2023-06-10T00:16:49;99414.34;;;17.08;85.18
81005;BME280;70472;47.592;17.640;2023-06-10T00:17:21;99406.22;;;17.08;84.70
81005;BME280;70472;47.592;17.640;2023-06-10T00:17:54;99404.84;;;16.99;85.20
81005;BME280;70472;47.592;17.640;2023-06-10T00:18:26;99407.81;;;16.97;85.24
81005;BME280;70472;47.592;17.640;2023-06-10T00:19:03;99413.66;;;16.94;85.98
81005;BME280;70472;47.592;17.640;2023-06-10T00:19:37;99412.00;;;16.93;85.42
81005;BME280;70472;47.592;17.640;2023-06-10T00:20:10;99409.53;;;16.92;85.81
81005;BME280;70472;47.592;17.640;2023-06-10T00:20:43;99400.34;;;16.93;86.09
81005;BME280;70472;47.592;17.640;2023-06-10T00:21:16;99409.13;;;16.88;85.76
81005;BME280;70472;47.592;17.640;2023-06-10T00:21:48;99411.50;;;16.85;85.92
81005;BME280;70472;47.592;17.640;2023-06-10T00:22:20;99407.50;;;16.87;86.06
81005;BME280;70472;47.592;17.640;2023-06-10T00:22:53;99397.88;;;16.91;86.22
81005;BME280;70472;47.592;17.640;2023-06-10T00:23:25;99405.84;;;16.86;85.64
81005;BME280;70472;47.592;17.640;2023-06-10T00:23:58;99404.03;;;16.80;86.60
81005;BME280;70472;47.592;17.640;2023-06-10T00:24:30;99402.81;;;16.76;86.83
81005;BME280;70472;47.592;17.640;2023-06-10T00:25:05;99400.13;;;16.69;86.04
81005;BME280;70472;47.592;17.640;2023-06-10T00:25:38;99396.41;;;16.70;85.89
81005;BME280;70472;47.592;17.640;2023-06-10T00:26:10;99401.16;;;16.75;87.20
81005;BME280;70472;47.592;17.640;2023-06-10T00:26:43;99407.41;;;16.75;86.72
81005;BME280;70472;47.592;17.640;2023-06-10T00:27:15;99400.56;;;16.73;86.39
81005;BME280;70472;47.592;17.640;2023-06-10T00:27:48;99404.31;;;16.72;86.38
81005;BME280;70472;47.592;17.640;2023-06-10T00:28:20;99400.34;;;16.74;86.13
81005;BME280;70472;47.592;17.640;2023-06-10T00:28:53;99399.94;;;16.71;85.87
81005;BME280;70472;47.592;17.640;2023-06-10T00:29:25;99399.50;;;16.74;85.56
81005;BME280;70472;47.592;17.640;2023-06-10T00:29:58;99406.09;;;16.78;85.93
81005;BME280;70472;47.592;17.640;2023-06-10T00:30:30;99401.31;;;16.80;86.23
81005;BME280;70472;47.592;17.640;2023-06-10T00:31:03;99405.44;;;16.82;85.64
81005;BME280;70472;47.592;17.640;2023-06-10T00:31:37;99405.84;;;16.86;85.77
81005;BME280;70472;47.592;17.640;2023-06-10T00:32:11;99404.78;;;16.87;85.59
81005;BME280;70472;47.592;17.640;2023-06-10T00:32:43;99399.34;;;16.87;85.72
81005;BME280;70472;47.592;17.640;2023-06-10T00:33:15;99402.06;;;16.87;86.07
81005;BME280;70472;47.592;17.640;2023-06-10T00:33:48;99406.44;;;16.88;85.90
81005;BME280;70472;47.592;17.640;2023-06-10T00:34:20;99407.94;;;16.84;86.05
81005;BME280;70472;47.592;17.640;2023-06-10T00:34:53;99404.69;;;16.75;85.43
81005;BME280;70472;47.592;17.640;2023-06-10T00:35:25;99404.31;;;16.72;86.53
81005;BME280;70472;47.592;17.640;2023-06-10T00:35:57;99409.56;;;16.67;85.98
81005;BME280;70472;47.592;17.640;2023-06-10T00:36:30;99408.09;;;16.64;86.28
81005;BME280;70472;47.592;17.640;2023-06-10T00:37:02;99407.03;;;16.65;86.46
81005;BME280;70472;47.592;17.640;2023-06-10T00:37:35;99415.75;;;16.74;86.68
81005;BME280;70472;47.592;17.640;2023-06-10T00:38:08;99414.25;;;16.78;86.83
81005;BME280;70472;47.592;17.640;2023-06-10T00:38:40;99413.81;;;16.81;86.43
81005;BME280;70472;47.592;17.640;2023-06-10T00:39:14;99417.94;;;16.83;85.64
81005;BME280;70472;47.592;17.640;2023-06-10T00:39:46;99410.66;;;16.84;85.77
81005;BME280;70472;47.592;17.640;2023-06-10T00:40:18;99415.03;;;16.85;85.84
81005;BME280;70472;47.592;17.640;2023-06-10T00:40:51;99420.44;;;16.85;84.97
81005;BME280;70472;47.592;17.640;2023-06-10T00:41:23;99416.91;;;16.85;84.97
81005;BME280;70472;47.592;17.640;2023-06-10T00:41:56;99407.94;;;16.84;85.67
81005;BME280;70472;47.592;17.640;2023-06-10T00:42:28;99414.25;;;16.78;84.87
81005;BME280;70472;47.592;17.640;2023-06-10T00:43:01;99415.53;;;16.75;85.70
81005;BME280;70472;47.592;17.640;2023-06-10T00:43:33;99416.34;;;16.76;85.02
81005;BME280;70472;47.592;17.640;2023-06-10T00:44:06;99415.13;;;16.72;85.59
81005;BME280;70472;47.592;17.640;2023-06-10T00:44:38;99416.38;;;16.69;85.15
81005;BME280;70472;47.592;17.640;2023-06-10T00:45:10;99417.69;;;16.67;85.91
81005;BME280;70472;47.592;17.640;2023-06-10T00:45:43;99417.22;;;16.70;85.50
81005;BME280;70472;47.592;17.640;2023-06-10T00:46:16;99419.72;;;16.71;86.25
81005;BME280;70472;47.592;17.640;2023-06-10T00:46:48;99420.16;;;16.68;86.21
81005;BME280;70472;47.592;17.640;2023-06-10T00:47:21;99420.16;;;16.68;85.51
81005;BME280;70472;47.592;17.640;2023-06-10T00:47:54;99415.56;;;16.69;85.72
81005;BME280;70472;47.592;17.640;2023-06-10T00:48:27;99415.41;;;16.64;85.50
81005;BME280;70472;47.592;17.640;2023-06-10T00:49:01;99416.00;;;16.66;86.29
81005;BME280;70472;47.592;17.640;2023-06-10T00:49:35;99417.06;;;16.65;85.82
81005;BME280;70472;47.592;17.640;2023-06-10T00:50:07;99413.53;;;16.64;86.00
81005;BME280;70472;47.592;17.640;2023-06-10T00:50:40;99409.16;;;16.63;85.57
81005;BME280;70472;47.592;17.640;2023-06-10T00:51:13;99411.34;;;16.54;86.03
81005;BME280;70472;47.592;17.640;2023-06-10T00:51:47;99409.66;;;16.53;85.65
81005;BME280;70472;47.592;17.640;2023-06-10T00:52:19;99414.66;;;16.56;86.38
81005;BME280;70472;47.592;17.640;2023-06-10T00:52:54;99415.00;;;16.60;85.76
81005;BME280;70472;47.592;17.640;2023-06-10T00:53:28;99416.94;;;16.53;86.79
81005;BME280;70472;47.592;17.640;2023-06-10T00:54:01;99416.28;;;16.58;86.59
81005;BME280;70472;47.592;17.640;2023-06-10T00:54:33;99411.47;;;16.60;85.65
81005;BME280;70472;47.592;17.640;2023-06-10T00:55:06;99415.63;;;16.62;85.69
81005;BME280;70472;47.592;17.640;2023-06-10T00:55:41;99414.81;;;16.62;85.64
81005;BME280;70472;47.592;17.640;2023-06-10T00:56:14;99410.59;;;16.66;85.72
81005;BME280;70472;47.592;17.640;2023-06-10T00:56:47;99419.94;;;16.70;85.42
81005;BME280;70472;47.592;17.640;2023-06-10T00:57:20;99416.19;;;16.71;85.96
81005;BME280;70472;47.592;17.640;2023-06-10T00:57:53;99420.56;;;16.72;85.30
81005;BME280;70472;47.592;17.640;2023-06-10T00:58:26;99417.22;;;16.70;85.86
81005;BME280;70472;47.592;17.640;2023-06-10T00:58:59;99412.44;;;16.72;85.48
81005;BME280;70472;47.592;17.640;2023-06-10T00:59:32;99417.84;;;16.72;85.61
81005;BME280;70472;47.592;17.640;2023-06-10T01:00:06;99415.13;;;16.72;85.31
81005;BME280;70472;47.592;17.640;2023-06-10T01:00:38;99417.66;;;16.73;85.48
81005;BME280;70472;47.592;17.640;2023-06-10T01:01:11;99420.13;;;16.75;84.98
81005;BME280;70472;47.592;17.640;2023-06-10T01:01:43;99420.13;;;16.75;85.79
81005;BME280;70472;47.592;17.640;2023-06-10T01:02:17;99414.25;;;16.78;85.71
81005;BME280;70472;47.592;17.640;2023-06-10T01:02:49;99412.59;;;16.77;85.11
81005;BME280;70472;47.592;17.640;2023-06-10T01:03:21;99416.94;;;16.78;85.08
81005;BME280;70472;47.592;17.640;2023-06-10T01:03:54;99416.13;;;16.77;84.71
81005;BME280;70472;47.592;17.640;2023-06-10T01:04:26;99413.66;;;16.76;85.07
81005;BME280;70472;47.592;17.640;2023-06-10T01:05:00;99419.72;;;16.71;85.44
81005;BME280;70472;47.592;17.640;2023-06-10T01:05:32;99417.00;;;16.71;85.47
81005;BME280;70472;47.592;17.640;2023-06-10T01:07:28;99417.66;;;16.73;85.63
81005;BME280;70472;47.592;17.640;2023-06-10T01:10:51;99416.59;;;16.74;84.68
81005;BME280;70472;47.592;17.640;2023-06-10T01:11:40;99426.34;;;16.75;85.42
81005;BME280;70472;47.592;17.640;2023-06-10T01:12:33;99422.81;;;16.75;84.58
81005;BME280;70472;47.592;17.640;2023-06-10T01:13:10;99425.97;;;16.72;84.77
81005;BME280;70472;47.592;17.640;2023-06-10T01:13:44;99428.47;;;16.73;84.64
81005;BME280;70472;47.592;17.640;2023-06-10T01:14:17;99423.06;;;16.73;85.42
81005;BME280;70472;47.592;17.640;2023-06-10T01:14:50;99429.09;;;16.69;85.54
81005;BME280;70472;47.592;17.640;2023-06-10T01:15:22;99423.53;;;16.64;85.18
81005;BME280;70472;47.592;17.640;2023-06-10T01:15:56;99417.34;;;16.56;85.28
81005;BME280;70472;47.592;17.640;2023-06-10T01:16:29;99418.25;;;16.50;85.16
81005;BME280;70472;47.592;17.640;2023-06-10T01:17:02;99421.66;;;16.39;85.32
81005;BME280;70472;47.592;17.640;2023-06-10T01:17:56;99430.78;;;16.45;85.56
81005;BME280;70472;47.592;17.640;2023-06-10T01:18:32;99420.84;;;16.39;85.40
81005;BME280;70472;47.592;17.640;2023-06-10T01:19:04;99422.25;;;16.41;85.72
81005;BME280;70472;47.592;17.640;2023-06-10T01:19:37;99422.91;;;16.43;85.80
81005;BME280;70472;47.592;17.640;2023-06-10T01:20:10;99415.38;;;16.45;85.71
81005;BME280;70472;47.592;17.640;2023-06-10T01:20:44;99418.66;;;16.47;85.21
81005;BME280;70472;47.592;17.640;2023-06-10T01:21:23;99420.72;;;16.52;85.17
81005;BME280;70472;47.592;17.640;2023-06-10T01:21:55;99422.59;;;16.51;86.25
81005;BME280;70472;47.592;17.640;2023-06-10T01:22:28;99418.41;;;16.55;86.22
81005;BME280;70472;47.592;17.640;2023-06-10T01:23:01;99421.13;;;16.55;85.75
81005;BME280;70472;47.592;17.640;2023-06-10T01:23:34;99424.41;;;16.58;86.16
81005;BME280;70472;47.592;17.640;2023-06-10T01:24:07;99425.47;;;16.56;85.34
81005;BME280;70472;47.592;17.640;2023-06-10T01:24:39;99417.34;;;16.56;85.15
81005;BME280;70472;47.592;17.640;2023-06-10T01:25:12;99420.66;;;16.59;85.77
81005;BME280;70472;47.592;17.640;2023-06-10T01:26:02;99418.78;;;16.59;85.68
81005;BME280;70472;47.592;17.640;2023-06-10T01:26:37;99412.59;;;16.52;85.84
81005;BME280;70472;47.592;17.640;2023-06-10T01:27:13;99420.78;;;16.45;85.30
81005;BME280;70472;47.592;17.640;2023-06-10T01:27:50;99427.09;;;16.39;86.13
81005;BME280;70472;47.592;17.640;2023-06-10T01:28:47;99422.09;;;16.36;86.03
81005;BME280;70472;47.592;17.640;2023-06-10T01:29:36;99426.19;;;16.20;85.59
81005;BME280;70472;47.592;17.640;2023-06-10T01:30:15;99422.03;;;16.18;86.00
81005;BME280;70472;47.592;17.640;2023-06-10T01:31:31;99422.75;;;16.07;86.28
81005;BME280;70472;47.592;17.640;2023-06-10T01:32:29;99421.59;;;15.96;86.73
81005;BME280;70472;47.592;17.640;2023-06-10T01:33:07;99419.34;;;15.86;87.00
81005;BME280;70472;47.592;17.640;2023-06-10T01:33:46;99418.75;;;15.84;87.29
81005;BME280;70472;47.592;17.640;2023-06-10T01:34:21;99417.09;;;15.83;87.43
81005;BME280;70472;47.592;17.640;2023-06-10T01:34:56;99414.41;;;15.83;87.99
81005;BME280;70472;47.592;17.640;2023-06-10T01:35:31;99415.00;;;15.85;87.42
81005;BME280;70472;47.592;17.640;2023-06-10T01:36:04;99417.69;;;15.85;88.02
81005;BME280;70472;47.592;17.640;2023-06-10T01:36:38;99416.66;;;15.86;87.59
81005;BME280;70472;47.592;17.640;2023-06-10T01:37:16;99411.84;;;15.88;88.31
81005;BME280;70472;47.592;17.640;2023-06-10T01:37:53;99419.31;;;15.93;87.80
81005;BME280;70472;47.592;17.640;2023-06-10T01:38:27;99412.03;;;15.93;87.67
81005;BME280;70472;47.592;17.640;2023-06-10T01:39:04;99419.06;;;16.01;88.04
81005;BME280;70472;47.592;17.640;2023-06-10T01:39:38;99419.00;;;16.08;87.55
81005;BME280;70472;47.592;17.640;2023-06-10T01:40:14;99413.16;;;16.11;86.87
81005;BME280;70472;47.592;17.640;2023-06-10T01:40:48;99418.97;;;16.14;86.79
81005;BME280;70472;47.592;17.640;2023-06-10T01:41:22;99415.44;;;16.14;86.38
81005;BME280;70472;47.592;17.640;2023-06-10T01:41:55;99416.91;;;16.10;86.26
81005;BME280;70472;47.592;17.640;2023-06-10T01:42:28;99411.50;;;16.10;87.06
81005;BME280;70472;47.592;17.640;2023-06-10T01:43:02;99417.91;;;16.15;87.39
81005;BME280;70472;47.592;17.640;2023-06-10T01:43:35;99414.44;;;16.08;87.54
81005;BME280;70472;47.592;17.640;2023-06-10T01:44:10;99419.22;;;16.06;87.44
81005;BME280;70472;47.592;17.640;2023-06-10T01:44:44;99416.91;;;16.10;86.73
81005;BME280;70472;47.592;17.640;2023-06-10T01:45:17;99416.69;;;16.11;87.25
81005;BME280;70472;47.592;17.640;2023-06-10T01:45:49;99417.50;;;16.12;86.94
81005;BME280;70472;47.592;17.640;2023-06-10T01:46:22;99417.69;;;16.17;86.88
81005;BME280;70472;47.592;17.640;2023-06-10T01:46:54;99417.69;;;16.17;86.13
81005;BME280;70472;47.592;17.640;2023-06-10T01:47:27;99412.91;;;16.19;86.20
81005;BME280;70472;47.592;17.640;2023-06-10T01:47:59;99413.50;;;16.21;86.91
81005;BME280;70472;47.592;17.640;2023-06-10T01:48:32;99412.22;;;16.23;85.98
81005;BME280;70472;47.592;17.640;2023-06-10T01:49:05;99424.69;;;16.24;85.96
81005;BME280;70472;47.592;17.640;2023-06-10T01:49:37;99419.91;;;16.26;86.05
81005;BME280;70472;47.592;17.640;2023-06-10T01:50:12;99424.31;;;16.21;85.70
81005;BME280;70472;47.592;17.640;2023-06-10T01:50:44;99418.91;;;16.21;86.35
81005;BME280;70472;47.592;17.640;2023-06-10T01:51:17;99422.22;;;16.23;86.57
81005;BME280;70472;47.592;17.640;2023-06-10T01:51:49;99416.56;;;16.24;85.99
81005;BME280;70472;47.592;17.640;2023-06-10T01:52:22;99413.25;;;16.22;86.15
81005;BME280;70472;47.592;17.640;2023-06-10T01:52:57;99413.03;;;16.24;86.58
81005;BME280;70472;47.592;17.640;2023-06-10T01:53:31;99421.97;;;16.24;85.84
81005;BME280;70472;47.592;17.640;2023-06-10T01:54:04;99430.09;;;16.24;86.04
81005;BME280;70472;47.592;17.640;2023-06-10T01:54:36;99425.16;;;16.21;85.43
81005;BME280;70472;47.592;17.640;2023-06-10T01:55:10;99422.22;;;16.23;85.02
81005;BME280;70472;47.592;17.640;2023-06-10T01:55:44;99422.22;;;16.23;85.42
81005;BME280;70472;47.592;17.640;2023-06-10T01:56:17;99425.75;;;16.23;85.30
81005;BME280;70472;47.592;17.640;2023-06-10T01:56:51;99419.97;;;16.20;86.36
81005;BME280;70472;47.592;17.640;2023-06-10T01:57:23;99426.81;;;16.22;86.43
81005;BME280;70472;47.592;17.640;2023-06-10T01:57:56;99423.50;;;16.20;85.78
81005;BME280;70472;47.592;17.640;2023-06-10T01:58:28;99423.88;;;16.24;86.26
81005;BME280;70472;47.592;17.640;2023-06-10T01:59:01;99425.53;;;16.25;85.98
81005;BME280;70472;47.592;17.640;2023-06-10T01:59:33;99424.25;;;16.27;85.38
81005;BME280;70472;47.592;17.640;2023-06-10T02:00:06;99417.19;;;16.26;85.17
81005;BME280;70472;47.592;17.640;2023-06-10T02:00:45;99421.78;;;16.26;85.76
81005;BME280;70472;47.592;17.640;2023-06-10T02:01:18;99425.56;;;16.18;85.88
81005;BME280;70472;47.592;17.640;2023-06-10T02:01:50;99424.75;;;16.18;85.42
81005;BME280;70472;47.592;17.640;2023-06-10T02:02:23;99426.03;;;16.15;84.92
81005;BME280;70472;47.592;17.640;2023-06-10T02:02:55;99423.97;;;16.11;86.19
81005;BME280;70472;47.592;17.640;2023-06-10T02:03:28;99431.13;;;15.98;85.97
81005;BME280;70472;47.592;17.640;2023-06-10T02:04:00;99431.72;;;16.00;85.91
81005;BME280;70472;47.592;17.640;2023-06-10T02:04:35;99425.31;;;16.01;86.57
81005;BME280;70472;47.592;17.640;2023-06-10T02:05:08;99430.44;;;16.10;85.70
81005;BME280;70472;47.592;17.640;2023-06-10T02:05:41;99431.66;;;16.14;86.32
81005;BME280;70472;47.592;17.640;2023-06-10T02:06:13;99438.97;;;16.13;86.00
81005;BME280;70472;47.592;17.640;2023-06-10T02:06:46;99426.44;;;16.12;86.16
81005;BME280;70472;47.592;17.640;2023-06-10T02:07:18;99431.50;;;16.09;85.44
81005;BME280;70472;47.592;17.640;2023-06-10T02:07:51;99425.31;;;16.01;86.10
81005;BME280;70472;47.592;17.640;2023-06-10T02:08:23;99424.91;;;15.98;85.47
81005;BME280;70472;47.592;17.640;2023-06-10T02:08:56;99426.41;;;15.87;85.65
81005;BME280;70472;47.592;17.640;2023-06-10T02:09:29;99426.50;;;15.74;85.71
81005;BME280;70472;47.592;17.640;2023-06-10T02:10:02;99430.09;;;15.68;86.97
81005;BME280;70472;47.592;17.640;2023-06-10T02:10:34;99430.88;;;15.75;86.29
81005;BME280;70472;47.592;17.640;2023-06-10T02:11:07;99426.72;;;15.72;86.91
81005;BME280;70472;47.592;17.640;2023-06-10T02:11:40;99428.44;;;15.67;86.48
81005;BME280;70472;47.592;17.640;2023-06-10T02:12:12;99430.25;;;15.73;86.35
81005;BME280;70472;47.592;17.640;2023-06-10T02:12:45;99420.00;;;15.82;86.70
81005;BME280;70472;47.592;17.640;2023-06-10T02:13:18;99424.53;;;15.88;86.30
81005;BME280;70472;47.592;17.640;2023-06-10T02:13:50;99422.47;;;15.90;85.84
81005;BME280;70472;47.592;17.640;2023-06-10T02:14:23;99435.31;;;15.94;86.25
81005;BME280;70472;47.592;17.640;2023-06-10T02:14:55;99423.47;;;15.95;85.83
81005;BME280;70472;47.592;17.640;2023-06-10T02:15:28;99422.00;;;15.93;86.13
81005;BME280;70472;47.592;17.640;2023-06-10T02:16:00;99434.75;;;15.86;86.73
81005;BME280;70472;47.592;17.640;2023-06-10T02:16:34;99427.47;;;15.86;86.75
81005;BME280;70472;47.592;17.640;2023-06-10T02:17:06;99427.94;;;15.83;87.06
81005;BME280;70472;47.592;17.640;2023-06-10T02:17:39;99436.69;;;15.79;87.18
81005;BME280;70472;47.592;17.640;2023-06-10T02:18:11;99430.00;;;15.81;86.53
81005;BME280;70472;47.592;17.640;2023-06-10T02:18:44;99432.97;;;15.73;86.88
81005;BME280;70472;47.592;17.640;2023-06-10T02:19:16;99435.91;;;15.71;86.49
81005;BME280;70472;47.592;17.640;2023-06-10T02:19:49;99433.00;;;15.66;86.62
81005;BME280;70472;47.592;17.640;2023-06-10T02:20:22;99434.25;;;15.64;86.67
81005;BME280;70472;47.592;17.640;2023-06-10T02:20:54;99434.44;;;15.69;86.62
81005;BME280;70472;47.592;17.640;2023-06-10T02:21:27;99435.50;;;15.68;86.91
81005;BME280;70472;47.592;17.640;2023-06-10T02:21:59;99435.22;;;15.76;86.30
81005;BME280;70472;47.592;17.640;2023-06-10T02:22:31;99431.28;;;15.79;87.46
81005;BME280;70472;47.592;17.640;2023-06-10T02:23:05;99430.00;;;15.81;86.33
81005;BME280;70472;47.592;17.640;2023-06-10T02:23:37;99435.00;;;15.84;86.67
81005;BME280;70472;47.592;17.640;2023-06-10T02:24:10;99429.94;;;15.88;87.05
81005;BME280;70472;47.592;17.640;2023-06-10T02:24:42;99430.34;;;15.91;87.01
81005;BME280;70472;47.592;17.640;2023-06-10T02:25:14;99429.91;;;15.94;85.77
81005;BME280;70472;47.592;17.640;2023-06-10T02:25:47;99433.25;;;15.96;86.39
81005;BME280;70472;47.592;17.640;2023-06-10T02:26:19;99428.66;;;15.97;86.15
81005;BME280;70472;47.592;17.640;2023-06-10T02:26:53;99434.06;;;15.97;86.15
81005;BME280;70472;47.592;17.640;2023-06-10T02:27:26;99433.84;;;15.98;86.58
81005;BME280;70472;47.592;17.640;2023-06-10T02:28:00;99439.03;;;16.00;85.78
81005;BME280;70472;47.592;17.640;2023-06-10T02:28:32;99434.25;;;16.02;85.59
81005;BME280;70472;47.592;17.640;2023-06-10T02:29:05;99433.63;;;16.00;85.83
81005;BME280;70472;47.592;17.640;2023-06-10T02:29:37;99439.53;;;15.90;85.80
81005;BME280;70472;47.592;17.640;2023-06-10T02:30:10;99433.06;;;15.91;85.65
81005;BME280;70472;47.592;17.640;2023-06-10T02:30:43;99435.75;;;15.91;85.31
81005;BME280;70472;47.592;17.640;2023-06-10T02:31:15;99430.34;;;15.91;85.21
81005;BME280;70472;47.592;17.640;2023-06-10T02:31:48;99426.59;;;15.92;85.97
81005;BME280;70472;47.592;17.640;2023-06-10T02:32:20;99436.13;;;15.95;85.91
81005;BME280;70472;47.592;17.640;2023-06-10T02:32:53;99429.31;;;15.92;86.08
81005;BME280;70472;47.592;17.640;2023-06-10T02:33:25;99428.91;;;15.89;86.67
81005;BME280;70472;47.592;17.640;2023-06-10T02:33:58;99432.66;;;15.88;87.18
81005;BME280;70472;47.592;17.640;2023-06-10T02:34:31;99430.00;;;15.81;86.85
81005;BME280;70472;47.592;17.640;2023-06-10T02:35:04;99436.63;;;15.85;86.92
81005;BME280;70472;47.592;17.640;2023-06-10T02:35:39;99426.59;;;15.92;86.38
81005;BME280;70472;47.592;17.640;2023-06-10T02:36:11;99434.72;;;15.92;86.16
81005;BME280;70472;47.592;17.640;2023-06-10T02:36:44;99434.91;;;15.97;86.42
81005;BME280;70472;47.592;17.640;2023-06-10T02:37:16;99433.84;;;15.98;85.80
81005;BME280;70472;47.592;17.640;2023-06-10T02:37:49;99440.91;;;15.99;85.71
81005;BME280;70472;47.592;17.640;2023-06-10T02:38:23;99434.44;;;16.00;85.92
81005;BME280;70472;47.592;17.640;2023-06-10T02:38:56;99430.31;;;15.98;86.03
81005;BME280;70472;47.592;17.640;2023-06-10T02:39:29;99431.38;;;15.97;85.58
81005;BME280;70472;47.592;17.640;2023-06-10T02:40:02;99432.47;;;15.89;86.60
81005;BME280;70472;47.592;17.640;2023-06-10T02:40:36;99436.81;;;15.90;86.47
81005;BME280;70472;47.592;17.640;2023-06-10T02:41:08;99422.00;;;15.93;86.56
81005;BME280;70472;47.592;17.640;2023-06-10T02:41:40;99429.72;;;15.96;86.44
81005;BME280;70472;47.592;17.640;2023-06-10T02:42:13;99430.31;;;15.98;85.83
81005;BME280;70472;47.592;17.640;2023-06-10T02:42:45;99433.00;;;15.98;85.61
81005;BME280;70472;47.592;17.640;2023-06-10T02:43:18;99429.03;;;16.00;86.51
81005;BME280;70472;47.592;17.640;2023-06-10T02:43:52;99430.50;;;16.03;86.00
81005;BME280;70472;47.592;17.640;2023-06-10T02:44:25;99428.59;;;16.03;85.56
81005;BME280;70472;47.592;17.640;2023-06-10T02:44:57;99429.22;;;16.06;86.25
81005;BME280;70472;47.592;17.640;2023-06-10T02:45:39;99427.13;;;16.08;85.67
81005;BME280;70472;47.592;17.640;2023-06-10T02:46:12;99433.13;;;16.10;85.87
81005;BME280;70472;47.592;17.640;2023-06-10T02:46:45;99436.91;;;16.09;86.31
81005;BME280;70472;47.592;17.640;2023-06-10T02:47:18;99433.13;;;16.10;84.95
81005;BME280;70472;47.592;17.640;2023-06-10T02:47:51;99427.97;;;16.08;85.44
81005;BME280;70472;47.592;17.640;2023-06-10T02:48:27;99434.19;;;16.09;85.93
81005;BME280;70472;47.592;17.640;2023-06-10T02:49:01;99438.78;;;16.08;85.93
81005;BME280;70472;47.592;17.640;2023-06-10T02:49:33;99428.78;;;16.09;85.90
81005;BME280;70472;47.592;17.640;2023-06-10T02:50:06;99434.25;;;16.02;85.90
81005;BME280;70472;47.592;17.640;2023-06-10T02:50:45;99434.91;;;15.97;86.50
81005;BME280;70472;47.592;17.640;2023-06-10T02:51:26;99431.19;;;15.92;86.34
81005;BME280;70472;47.592;17.640;2023-06-10T02:52:04;99430.78;;;15.88;86.88
81005;BME280;70472;47.592;17.640;2023-06-10T02:52:36;99431.59;;;15.89;86.80
81005;BME280;70472;47.592;17.640;2023-06-10T02:53:09;99434.34;;;15.82;87.20
81005;BME280;70472;47.592;17.640;2023-06-10T02:53:45;99434.56;;;15.81;86.62
81005;BME280;70472;47.592;17.640;2023-06-10T02:54:18;99437.88;;;15.83;87.23
81005;BME280;70472;47.592;17.640;2023-06-10T02:54:50;99438.28;;;15.86;86.69
81005;BME280;70472;47.592;17.640;2023-06-10T02:55:23;99437.06;;;15.82;87.16
81005;BME280;70472;47.592;17.640;2023-06-10T02:55:59;99437.25;;;15.87;87.88
81005;BME280;70472;47.592;17.640;2023-06-10T02:56:31;99436.59;;;15.92;87.44
81005;BME280;70472;47.592;17.640;2023-06-10T02:57:06;99431.19;;;15.92;87.07
81005;BME280;70472;47.592;17.640;2023-06-10T02:57:39;99432.47;;;15.89;87.44
81005;BME280;70472;47.592;17.640;2023-06-10T02:58:11;99427.44;;;15.93;87.20
81005;BME280;70472;47.592;17.640;2023-06-10T02:58:44;99428.66;;;15.97;86.74
81005;BME280;70472;47.592;17.640;2023-06-10T02:59:19;99423.44;;;16.02;86.96
81005;BME280;70472;47.592;17.640;2023-06-10T02:59:51;99425.06;;;16.03;86.08
81005;BME280;70472;47.592;17.640;2023-06-10T03:00:24;99430.25;;;16.05;86.48
81005;BME280;70472;47.592;17.640;2023-06-10T03:00:57;99419.91;;;16.01;85.88